sensor_id;sensor_type;location;lat;lon;timestamp;P1;durP1;ratioP1;P2;durP2;ratioP2
19179;SDS011;9722;48.754;8.868;2024-03-17T00:02:52;4.13;;;3.83;;
19179;SDS011;9722;48.754;8.868;2024-03-17T00:06:12;4.60;;;4.20;;
19179;SDS011;9722;48.754;8.868;2024-03-17T00:09:32;3.87;;;3.57;;
19179;SDS011;9722;48.754;8.868;2024-03-17T00:12:53;4.20;;;3.90;;
19179;SDS011;9722;48.754;8.868;2024-03-17T00:16:14;4.57;;;4.17;;
19179;SDS011;9722;48.754;8.868;2024-03-17T00:19:38;3.50;;;3.07;;
19179;SDS011;9722;48.754;8.868;2024-03-17T00:22:59;3.37;;;3.17;;
19179;SDS011;9722;48.754;8.868;2024-03-17T00:26:19;5.10;;;3.93;;
19179;SDS011;9722;48.754;8.868;2024-03-17T00:29:40;3.87;;;3.57;;
19179;SDS011;9722;48.754;8.868;2024-03-17T00:33:00;3.57;;;3.27;;
19179;SDS011;9722;48.754;8.868;2024-03-17T00:36:21;3.40;;;3.10;;
19179;SDS011;9722;48.754;8.868;2024-03-17T00:39:41;3.13;;;2.93;;
19179;SDS011;9722;48.754;8.868;2024-03-17T00:43:02;3.67;;;3.37;;
19179;SDS011;9722;48.754;8.868;2024-03-17T00:46:22;3.70;;;3.40;;
19179;SDS011;9722;48.754;8.868;2024-03-17T00:49:44;3.93;;;3.53;;
19179;SDS011;9722;48.754;8.868;2024-03-17T00:53:04;6.73;;;3.50;;
19179;SDS011;9722;48.754;8.868;2024-03-17T00:56:25;3.97;;;3.53;;
19179;SDS011;9722;48.754;8.868;2024-03-17T00:59:45;11.13;;;4.10;;
19179;SDS011;9722;48.754;8.868;2024-03-17T01:03:06;4.77;;;4.37;;
19179;SDS011;9722;48.754;8.868;2024-03-17T01:06:26;3.67;;;3.37;;
19179;SDS011;9722;48.754;8.868;2024-03-17T01:09:47;3.57;;;3.30;;
19179;SDS011;9722;48.754;8.868;2024-03-17T01:13:08;4.43;;;3.80;;
19179;SDS011;9722;48.754;8.868;2024-03-17T01:16:29;3.50;;;3.20;;
19179;SDS011;9722;48.754;8.868;2024-03-17T01:19:50;3.23;;;3.00;;
19179;SDS011;9722;48.754;8.868;2024-03-17T01:23:11;3.80;;;3.50;;
19179;SDS011;9722;48.754;8.868;2024-03-17T01:26:33;4.77;;;3.90;;
19179;SDS011;9722;48.754;8.868;2024-03-17T01:29:54;6.27;;;3.97;;
19179;SDS011;9722;48.754;8.868;2024-03-17T01:33:14;4.43;;;3.60;;
19179;SDS011;9722;48.754;8.868;2024-03-17T01:36:35;4.17;;;3.87;;
19179;SDS011;9722;48.754;8.868;2024-03-17T01:39:56;3.90;;;3.60;;
19179;SDS011;9722;48.754;8.868;2024-03-17T01:43:16;3.63;;;3.27;;
19179;SDS011;9722;48.754;8.868;2024-03-17T01:46:37;3.90;;;3.60;;
19179;SDS011;9722;48.754;8.868;2024-03-17T01:49:57;4.47;;;4.00;;
19179;SDS011;9722;48.754;8.868;2024-03-17T01:53:18;4.17;;;3.60;;
19179;SDS011;9722;48.754;8.868;2024-03-17T01:56:41;3.70;;;3.40;;
19179;SDS011;9722;48.754;8.868;2024-03-17T02:00:02;4.10;;;3.67;;
19179;SDS011;9722;48.754;8.868;2024-03-17T02:03:24;4.13;;;3.73;;
19179;SDS011;9722;48.754;8.868;2024-03-17T02:06:45;3.73;;;3.37;;
19179;SDS011;9722;48.754;8.868;2024-03-17T02:10:06;4.20;;;3.90;;
19179;SDS011;9722;48.754;8.868;2024-03-17T02:13:28;3.70;;;3.40;;
19179;SDS011;9722;48.754;8.868;2024-03-17T02:16:49;3.80;;;3.50;;
19179;SDS011;9722;48.754;8.868;2024-03-17T02:20:09;3.43;;;3.20;;
19179;SDS011;9722;48.754;8.868;2024-03-17T02:23:33;3.40;;;3.10;;
19179;SDS011;9722;48.754;8.868;2024-03-17T02:26:53;3.27;;;2.97;;
19179;SDS011;9722;48.754;8.868;2024-03-17T02:30:14;2.90;;;2.70;;
19179;SDS011;9722;48.754;8.868;2024-03-17T02:33:34;3.10;;;2.90;;
19179;SDS011;9722;48.754;8.868;2024-03-17T02:36:55;3.20;;;3.00;;
19179;SDS011;9722;48.754;8.868;2024-03-17T02:40:16;4.27;;;3.87;;
19179;SDS011;9722;48.754;8.868;2024-03-17T02:43:37;5.00;;;4.50;;
19179;SDS011;9722;48.754;8.868;2024-03-17T02:46:58;5.20;;;4.70;;
19179;SDS011;9722;48.754;8.868;2024-03-17T02:50:19;4.80;;;4.40;;
19179;SDS011;9722;48.754;8.868;2024-03-17T02:53:41;3.97;;;3.60;;
19179;SDS011;9722;48.754;8.868;2024-03-17T02:57:02;4.00;;;3.60;;
19179;SDS011;9722;48.754;8.868;2024-03-17T03:00:23;3.87;;;3.43;;
19179;SDS011;9722;48.754;8.868;2024-03-17T03:03:45;3.13;;;2.93;;
19179;SDS011;9722;48.754;8.868;2024-03-17T03:07:05;3.10;;;2.70;;
19179;SDS011;9722;48.754;8.868;2024-03-17T03:10:26;3.17;;;2.93;;
19179;SDS011;9722;48.754;8.868;2024-03-17T03:13:47;3.10;;;2.80;;
19179;SDS011;9722;48.754;8.868;2024-03-17T03:17:07;3.23;;;3.03;;
19179;SDS011;9722;48.754;8.868;2024-03-17T03:20:28;3.23;;;2.80;;
19179;SDS011;9722;48.754;8.868;2024-03-17T03:23:48;3.13;;;2.83;;
19179;SDS011;9722;48.754;8.868;2024-03-17T03:27:09;2.57;;;2.37;;
19179;SDS011;9722;48.754;8.868;2024-03-17T03:30:29;3.53;;;3.23;;
19179;SDS011;9722;48.754;8.868;2024-03-17T03:33:50;3.70;;;3.40;;
19179;SDS011;9722;48.754;8.868;2024-03-17T03:37:10;3.20;;;2.97;;
19179;SDS011;9722;48.754;8.868;2024-03-17T03:40:31;4.03;;;3.63;;
19179;SDS011;9722;48.754;8.868;2024-03-17T03:43:52;3.20;;;2.90;;
19179;SDS011;9722;48.754;8.868;2024-03-17T03:47:13;3.10;;;2.90;;
19179;SDS011;9722;48.754;8.868;2024-03-17T03:50:33;3.43;;;3.13;;
19179;SDS011;9722;48.754;8.868;2024-03-17T03:53:54;3.27;;;2.87;;
19179;SDS011;9722;48.754;8.868;2024-03-17T03:57:15;3.67;;;3.37;;
19179;SDS011;9722;48.754;8.868;2024-03-17T04:00:36;3.00;;;2.70;;
19179;SDS011;9722;48.754;8.868;2024-03-17T04:03:59;3.50;;;3.20;;
19179;SDS011;9722;48.754;8.868;2024-03-17T04:07:19;3.23;;;2.93;;
19179;SDS011;9722;48.754;8.868;2024-03-17T04:10:40;5.57;;;3.27;;
19179;SDS011;9722;48.754;8.868;2024-03-17T04:14:03;3.20;;;3.00;;
19179;SDS011;9722;48.754;8.868;2024-03-17T04:17:25;2.67;;;2.47;;
19179;SDS011;9722;48.754;8.868;2024-03-17T04:20:45;3.43;;;3.13;;
19179;SDS011;9722;48.754;8.868;2024-03-17T04:24:06;3.53;;;3.23;;
19179;SDS011;9722;48.754;8.868;2024-03-17T04:27:27;3.60;;;3.30;;
19179;SDS011;9722;48.754;8.868;2024-03-17T04:30:48;3.30;;;3.10;;
19179;SDS011;9722;48.754;8.868;2024-03-17T04:34:08;4.03;;;3.20;;
19179;SDS011;9722;48.754;8.868;2024-03-17T04:37:29;3.00;;;2.80;;
19179;SDS011;9722;48.754;8.868;2024-03-17T04:40:49;3.30;;;3.00;;
19179;SDS011;9722;48.754;8.868;2024-03-17T04:44:10;3.93;;;3.10;;
19179;SDS011;9722;48.754;8.868;2024-03-17T04:47:30;3.60;;;3.13;;
19179;SDS011;9722;48.754;8.868;2024-03-17T04:50:51;3.30;;;3.10;;
19179;SDS011;9722;48.754;8.868;2024-03-17T04:54:12;4.20;;;3.37;;
19179;SDS011;9722;48.754;8.868;2024-03-17T04:57:32;3.80;;;3.43;;
19179;SDS011;9722;48.754;8.868;2024-03-17T05:00:53;4.17;;;3.77;;
19179;SDS011;9722;48.754;8.868;2024-03-17T05:04:13;4.77;;;4.37;;
19179;SDS011;9722;48.754;8.868;2024-03-17T05:07:34;4.03;;;3.73;;
19179;SDS011;9722;48.754;8.868;2024-03-17T05:10:58;4.27;;;3.97;;
19179;SDS011;9722;48.754;8.868;2024-03-17T05:14:20;3.40;;;3.10;;
19179;SDS011;9722;48.754;8.868;2024-03-17T05:17:40;3.17;;;2.87;;
19179;SDS011;9722;48.754;8.868;2024-03-17T05:21:02;3.73;;;3.43;;
19179;SDS011;9722;48.754;8.868;2024-03-17T05:24:23;3.40;;;3.10;;
19179;SDS011;9722;48.754;8.868;2024-03-17T05:27:44;3.13;;;2.90;;
19179;SDS011;9722;48.754;8.868;2024-03-17T05:31:04;3.30;;;3.10;;
19179;SDS011;9722;48.754;8.868;2024-03-17T05:34:25;2.60;;;2.40;;
19179;SDS011;9722;48.754;8.868;2024-03-17T05:37:46;3.20;;;2.90;;
19179;SDS011;9722;48.754;8.868;2024-03-17T05:41:09;4.17;;;3.20;;
19179;SDS011;9722;48.754;8.868;2024-03-17T05:44:29;3.17;;;2.93;;
19179;SDS011;9722;48.754;8.868;2024-03-17T05:47:59;3.73;;;3.37;;
19179;SDS011;9722;48.754;8.868;2024-03-17T05:51:25;4.20;;;3.80;;
19179;SDS011;9722;48.754;8.868;2024-03-17T05:54:47;3.73;;;3.43;;
19179;SDS011;9722;48.754;8.868;2024-03-17T05:58:07;4.30;;;3.90;;
19179;SDS011;9722;48.754;8.868;2024-03-17T06:01:28;4.07;;;3.77;;
19179;SDS011;9722;48.754;8.868;2024-03-17T06:04:48;4.13;;;3.73;;
19179;SDS011;9722;48.754;8.868;2024-03-17T06:08:09;4.47;;;4.07;;
19179;SDS011;9722;48.754;8.868;2024-03-17T06:11:31;4.10;;;3.80;;
19179;SDS011;9722;48.754;8.868;2024-03-17T06:14:54;5.30;;;3.57;;
19179;SDS011;9722;48.754;8.868;2024-03-17T06:18:15;3.47;;;3.17;;
19179;SDS011;9722;48.754;8.868;2024-03-17T06:21:37;4.53;;;3.40;;
19179;SDS011;9722;48.754;8.868;2024-03-17T06:24:58;4.10;;;3.77;;
19179;SDS011;9722;48.754;8.868;2024-03-17T06:28:19;4.07;;;3.77;;
19179;SDS011;9722;48.754;8.868;2024-03-17T06:31:41;4.50;;;3.83;;
19179;SDS011;9722;48.754;8.868;2024-03-17T06:35:01;4.37;;;3.97;;
19179;SDS011;9722;48.754;8.868;2024-03-17T06:38:22;3.80;;;3.50;;
19179;SDS011;9722;48.754;8.868;2024-03-17T06:41:42;3.63;;;3.33;;
19179;SDS011;9722;48.754;8.868;2024-03-17T06:45:03;3.47;;;3.17;;
19179;SDS011;9722;48.754;8.868;2024-03-17T06:48:25;3.20;;;3.00;;
19179;SDS011;9722;48.754;8.868;2024-03-17T06:51:46;3.13;;;2.83;;
19179;SDS011;9722;48.754;8.868;2024-03-17T06:55:08;2.90;;;2.70;;
19179;SDS011;9722;48.754;8.868;2024-03-17T06:58:28;3.17;;;2.87;;
19179;SDS011;9722;48.754;8.868;2024-03-17T07:01:49;3.23;;;3.03;;
19179;SDS011;9722;48.754;8.868;2024-03-17T07:05:13;3.00;;;2.80;;
19179;SDS011;9722;48.754;8.868;2024-03-17T07:08:34;3.47;;;3.03;;
19179;SDS011;9722;48.754;8.868;2024-03-17T07:11:54;2.63;;;2.43;;
19179;SDS011;9722;48.754;8.868;2024-03-17T07:15:16;2.73;;;2.53;;
19179;SDS011;9722;48.754;8.868;2024-03-17T07:18:36;2.90;;;2.70;;
19179;SDS011;9722;48.754;8.868;2024-03-17T07:21:57;2.83;;;2.50;;
19179;SDS011;9722;48.754;8.868;2024-03-17T07:25:17;2.90;;;2.70;;
19179;SDS011;9722;48.754;8.868;2024-03-17T07:28:38;2.80;;;2.43;;
19179;SDS011;9722;48.754;8.868;2024-03-17T07:32:01;2.27;;;2.13;;
19179;SDS011;9722;48.754;8.868;2024-03-17T07:35:22;2.60;;;2.40;;
19179;SDS011;9722;48.754;8.868;2024-03-17T07:38:42;4.20;;;2.83;;
19179;SDS011;9722;48.754;8.868;2024-03-17T07:42:03;2.30;;;2.10;;
19179;SDS011;9722;48.754;8.868;2024-03-17T07:45:24;2.60;;;2.40;;
19179;SDS011;9722;48.754;8.868;2024-03-17T07:48:44;2.53;;;2.30;;
19179;SDS011;9722;48.754;8.868;2024-03-17T07:52:05;7.60;;;6.20;;
19179;SDS011;9722;48.754;8.868;2024-03-17T07:55:26;6.10;;;4.47;;
19179;SDS011;9722;48.754;8.868;2024-03-17T07:58:47;3.73;;;3.37;;
19179;SDS011;9722;48.754;8.868;2024-03-17T08:02:10;3.20;;;2.90;;
19179;SDS011;9722;48.754;8.868;2024-03-17T08:05:30;3.23;;;2.93;;
19179;SDS011;9722;48.754;8.868;2024-03-17T08:08:51;3.40;;;3.00;;
19179;SDS011;9722;48.754;8.868;2024-03-17T08:12:11;5.10;;;3.90;;
19179;SDS011;9722;48.754;8.868;2024-03-17T08:15:32;3.87;;;3.43;;
19179;SDS011;9722;48.754;8.868;2024-03-17T08:18:52;4.67;;;3.43;;
19179;SDS011;9722;48.754;8.868;2024-03-17T08:22:13;5.97;;;3.53;;
19179;SDS011;9722;48.754;8.868;2024-03-17T08:25:34;3.60;;;3.30;;
19179;SDS011;9722;48.754;8.868;2024-03-17T08:28:55;4.30;;;3.40;;
19179;SDS011;9722;48.754;8.868;2024-03-17T08:32:15;4.13;;;3.80;;
19179;SDS011;9722;48.754;8.868;2024-03-17T08:35:37;3.40;;;2.90;;
19179;SDS011;9722;48.754;8.868;2024-03-17T08:38:57;4.63;;;3.20;;
19179;SDS011;9722;48.754;8.868;2024-03-17T08:42:18;2.73;;;2.53;;
19179;SDS011;9722;48.754;8.868;2024-03-17T08:45:39;2.87;;;2.67;;
19179;SDS011;9722;48.754;8.868;2024-03-17T08:48:59;3.47;;;3.07;;
19179;SDS011;9722;48.754;8.868;2024-03-17T08:52:20;3.10;;;2.80;;
19179;SDS011;9722;48.754;8.868;2024-03-17T08:55:43;3.17;;;2.83;;
19179;SDS011;9722;48.754;8.868;2024-03-17T08:59:03;3.00;;;2.80;;
19179;SDS011;9722;48.754;8.868;2024-03-17T09:02:24;3.20;;;2.90;;
19179;SDS011;9722;48.754;8.868;2024-03-17T09:05:45;3.03;;;2.83;;
19179;SDS011;9722;48.754;8.868;2024-03-17T09:09:07;4.07;;;2.83;;
19179;SDS011;9722;48.754;8.868;2024-03-17T09:12:28;3.63;;;2.77;;
19179;SDS011;9722;48.754;8.868;2024-03-17T09:15:58;3.10;;;2.80;;
19179;SDS011;9722;48.754;8.868;2024-03-17T09:19:20;3.00;;;2.80;;
19179;SDS011;9722;48.754;8.868;2024-03-17T09:22:41;4.27;;;3.93;;
19179;SDS011;9722;48.754;8.868;2024-03-17T09:26:02;3.40;;;3.10;;
19179;SDS011;9722;48.754;8.868;2024-03-17T09:29:24;2.90;;;2.70;;
19179;SDS011;9722;48.754;8.868;2024-03-17T09:32:44;3.30;;;3.00;;
19179;SDS011;9722;48.754;8.868;2024-03-17T09:36:06;3.63;;;3.30;;
19179;SDS011;9722;48.754;8.868;2024-03-17T09:39:27;3.30;;;3.10;;
19179;SDS011;9722;48.754;8.868;2024-03-17T09:42:48;3.00;;;2.80;;
19179;SDS011;9722;48.754;8.868;2024-03-17T09:46:09;3.20;;;3.00;;
19179;SDS011;9722;48.754;8.868;2024-03-17T09:49:30;3.57;;;2.60;;
19179;SDS011;9722;48.754;8.868;2024-03-17T09:52:51;2.40;;;2.30;;
19179;SDS011;9722;48.754;8.868;2024-03-17T09:56:12;3.10;;;2.90;;
19179;SDS011;9722;48.754;8.868;2024-03-17T09:59:38;2.77;;;2.57;;
19179;SDS011;9722;48.754;8.868;2024-03-17T10:02:59;3.80;;;2.40;;
19179;SDS011;9722;48.754;8.868;2024-03-17T10:06:20;3.90;;;3.50;;
19179;SDS011;9722;48.754;8.868;2024-03-17T10:09:42;3.00;;;2.70;;
19179;SDS011;9722;48.754;8.868;2024-03-17T10:13:06;2.20;;;2.00;;
19179;SDS011;9722;48.754;8.868;2024-03-17T10:16:32;2.40;;;2.20;;
19179;SDS011;9722;48.754;8.868;2024-03-17T10:19:58;2.60;;;2.40;;
19179;SDS011;9722;48.754;8.868;2024-03-17T10:23:37;2.83;;;2.63;;
19179;SDS011;9722;48.754;8.868;2024-03-17T10:26:58;2.77;;;2.20;;
19179;SDS011;9722;48.754;8.868;2024-03-17T10:30:19;3.03;;;1.93;;
19179;SDS011;9722;48.754;8.868;2024-03-17T10:33:41;2.00;;;1.80;;
19179;SDS011;9722;48.754;8.868;2024-03-17T10:40:45;1.90;;;1.80;;
19179;SDS011;9722;48.754;8.868;2024-03-17T10:44:06;2.47;;;1.70;;
19179;SDS011;9722;48.754;8.868;2024-03-17T10:47:28;2.37;;;1.70;;
19179;SDS011;9722;48.754;8.868;2024-03-17T10:50:49;1.90;;;1.60;;
19179;SDS011;9722;48.754;8.868;2024-03-17T10:54:13;1.73;;;1.60;;
19179;SDS011;9722;48.754;8.868;2024-03-17T10:57:44;3.33;;;1.90;;
19179;SDS011;9722;48.754;8.868;2024-03-17T11:01:09;1.80;;;1.70;;
19179;SDS011;9722;48.754;8.868;2024-03-17T11:04:33;1.60;;;1.50;;
19179;SDS011;9722;48.754;8.868;2024-03-17T11:07:55;1.70;;;1.53;;
19179;SDS011;9722;48.754;8.868;2024-03-17T11:11:34;1.57;;;1.40;;
19179;SDS011;9722;48.754;8.868;2024-03-17T11:18:53;1.57;;;1.47;;
19179;SDS011;9722;48.754;8.868;2024-03-17T11:22:41;2.40;;;1.33;;
19179;SDS011;9722;48.754;8.868;2024-03-17T11:26:02;1.57;;;1.00;;
19179;SDS011;9722;48.754;8.868;2024-03-17T11:29:28;1.13;;;0.90;;
19179;SDS011;9722;48.754;8.868;2024-03-17T11:32:49;1.47;;;1.17;;
19179;SDS011;9722;48.754;8.868;2024-03-17T11:39:54;0.90;;;0.80;;
19179;SDS011;9722;48.754;8.868;2024-03-17T11:43:18;1.53;;;0.90;;
19179;SDS011;9722;48.754;8.868;2024-03-17T11:46:39;0.80;;;0.80;;
19179;SDS011;9722;48.754;8.868;2024-03-17T11:50:01;1.17;;;1.03;;
19179;SDS011;9722;48.754;8.868;2024-03-17T11:53:23;1.97;;;1.00;;
19179;SDS011;9722;48.754;8.868;2024-03-17T11:56:43;0.93;;;0.93;;
19179;SDS011;9722;48.754;8.868;2024-03-17T12:00:20;0.97;;;0.70;;
19179;SDS011;9722;48.754;8.868;2024-03-17T12:03:43;1.50;;;0.70;;
19179;SDS011;9722;48.754;8.868;2024-03-17T12:07:04;1.33;;;0.60;;
19179;SDS011;9722;48.754;8.868;2024-03-17T12:10:32;1.23;;;0.90;;
19179;SDS011;9722;48.754;8.868;2024-03-17T12:13:53;1.70;;;0.70;;
19179;SDS011;9722;48.754;8.868;2024-03-17T12:17:14;0.63;;;0.60;;
19179;SDS011;9722;48.754;8.868;2024-03-17T12:20:39;1.83;;;0.63;;
19179;SDS011;9722;48.754;8.868;2024-03-17T12:24:00;0.80;;;0.73;;
19179;SDS011;9722;48.754;8.868;2024-03-17T12:27:22;2.07;;;1.17;;
19179;SDS011;9722;48.754;8.868;2024-03-17T12:30:44;1.23;;;0.60;;
19179;SDS011;9722;48.754;8.868;2024-03-17T12:34:06;0.67;;;0.67;;
19179;SDS011;9722;48.754;8.868;2024-03-17T12:37:27;0.60;;;0.50;;
19179;SDS011;9722;48.754;8.868;2024-03-17T12:40:54;1.53;;;0.67;;
19179;SDS011;9722;48.754;8.868;2024-03-17T12:44:21;0.90;;;0.60;;
19179;SDS011;9722;48.754;8.868;2024-03-17T12:47:42;0.70;;;0.70;;
19179;SDS011;9722;48.754;8.868;2024-03-17T12:51:13;2.20;;;0.70;;
19179;SDS011;9722;48.754;8.868;2024-03-17T12:54:34;0.90;;;0.70;;
19179;SDS011;9722;48.754;8.868;2024-03-17T13:01:39;1.20;;;0.80;;
19179;SDS011;9722;48.754;8.868;2024-03-17T13:08:40;0.70;;;0.60;;
19179;SDS011;9722;48.754;8.868;2024-03-17T13:12:01;0.70;;;0.70;;
19179;SDS011;9722;48.754;8.868;2024-03-17T13:15:21;2.07;;;0.80;;
19179;SDS011;9722;48.754;8.868;2024-03-17T13:18:42;0.60;;;0.50;;
19179;SDS011;9722;48.754;8.868;2024-03-17T13:22:02;0.80;;;0.60;;
19179;SDS011;9722;48.754;8.868;2024-03-17T13:25:27;1.97;;;0.70;;
19179;SDS011;9722;48.754;8.868;2024-03-17T13:28:56;0.70;;;0.60;;
19179;SDS011;9722;48.754;8.868;2024-03-17T13:32:17;1.40;;;1.23;;
19179;SDS011;9722;48.754;8.868;2024-03-17T13:35:38;2.93;;;1.50;;
19179;SDS011;9722;48.754;8.868;2024-03-17T13:38:59;2.07;;;0.60;;
19179;SDS011;9722;48.754;8.868;2024-03-17T13:42:20;2.40;;;0.70;;
19179;SDS011;9722;48.754;8.868;2024-03-17T13:45:41;1.20;;;0.70;;
19179;SDS011;9722;48.754;8.868;2024-03-17T13:49:08;0.43;;;0.40;;
19179;SDS011;9722;48.754;8.868;2024-03-17T13:52:28;1.67;;;0.60;;
19179;SDS011;9722;48.754;8.868;2024-03-17T13:55:49;1.07;;;0.60;;
19179;SDS011;9722;48.754;8.868;2024-03-17T13:59:11;1.00;;;0.70;;
19179;SDS011;9722;48.754;8.868;2024-03-17T14:02:31;2.13;;;0.70;;
19179;SDS011;9722;48.754;8.868;2024-03-17T14:05:52;0.93;;;0.83;;
19179;SDS011;9722;48.754;8.868;2024-03-17T14:09:14;1.20;;;0.90;;
19179;SDS011;9722;48.754;8.868;2024-03-17T14:12:36;1.50;;;1.00;;
19179;SDS011;9722;48.754;8.868;2024-03-17T14:15:56;1.63;;;0.90;;
19179;SDS011;9722;48.754;8.868;2024-03-17T14:19:17;0.97;;;0.90;;
19179;SDS011;9722;48.754;8.868;2024-03-17T14:22:38;0.97;;;0.53;;
19179;SDS011;9722;48.754;8.868;2024-03-17T14:26:01;1.27;;;0.80;;
19179;SDS011;9722;48.754;8.868;2024-03-17T14:29:24;1.00;;;0.70;;
19179;SDS011;9722;48.754;8.868;2024-03-17T14:32:44;1.10;;;1.00;;
19179;SDS011;9722;48.754;8.868;2024-03-17T14:36:05;1.10;;;0.87;;
19179;SDS011;9722;48.754;8.868;2024-03-17T14:39:26;2.07;;;1.00;;
19179;SDS011;9722;48.754;8.868;2024-03-17T14:42:51;1.70;;;0.93;;
19179;SDS011;9722;48.754;8.868;2024-03-17T14:46:12;2.80;;;0.73;;
19179;SDS011;9722;48.754;8.868;2024-03-17T14:49:33;0.77;;;0.60;;
19179;SDS011;9722;48.754;8.868;2024-03-17T14:52:54;4.13;;;0.80;;
19179;SDS011;9722;48.754;8.868;2024-03-17T14:56:15;1.63;;;0.90;;
19179;SDS011;9722;48.754;8.868;2024-03-17T14:59:38;1.43;;;0.80;;
19179;SDS011;9722;48.754;8.868;2024-03-17T15:02:59;1.93;;;0.90;;
19179;SDS011;9722;48.754;8.868;2024-03-17T15:06:20;1.30;;;0.73;;
19179;SDS011;9722;48.754;8.868;2024-03-17T15:09:41;1.40;;;1.17;;
19179;SDS011;9722;48.754;8.868;2024-03-17T15:13:02;1.50;;;1.00;;
19179;SDS011;9722;48.754;8.868;2024-03-17T15:16:23;2.43;;;1.10;;
19179;SDS011;9722;48.754;8.868;2024-03-17T15:19:46;1.90;;;1.23;;
19179;SDS011;9722;48.754;8.868;2024-03-17T15:23:07;2.90;;;1.30;;
19179;SDS011;9722;48.754;8.868;2024-03-17T15:26:27;1.57;;;1.00;;
19179;SDS011;9722;48.754;8.868;2024-03-17T15:29:49;1.90;;;1.30;;
19179;SDS011;9722;48.754;8.868;2024-03-17T15:33:09;2.10;;;0.97;;
19179;SDS011;9722;48.754;8.868;2024-03-17T15:36:30;1.03;;;1.03;;
19179;SDS011;9722;48.754;8.868;2024-03-17T15:39:50;2.47;;;1.70;;
19179;SDS011;9722;48.754;8.868;2024-03-17T15:43:12;1.53;;;1.43;;
19179;SDS011;9722;48.754;8.868;2024-03-17T15:46:32;2.20;;;1.93;;
19179;SDS011;9722;48.754;8.868;2024-03-17T15:49:53;2.73;;;1.87;;
19179;SDS011;9722;48.754;8.868;2024-03-17T15:53:14;2.10;;;1.90;;
19179;SDS011;9722;48.754;8.868;2024-03-17T15:56:34;2.90;;;2.10;;
19179;SDS011;9722;48.754;8.868;2024-03-17T15:59:55;2.53;;;2.33;;
19179;SDS011;9722;48.754;8.868;2024-03-17T16:03:16;2.77;;;2.50;;
19179;SDS011;9722;48.754;8.868;2024-03-17T16:06:41;1.90;;;1.80;;
19179;SDS011;9722;48.754;8.868;2024-03-17T16:10:02;6.63;;;3.10;;
19179;SDS011;9722;48.754;8.868;2024-03-17T16:13:25;2.37;;;2.00;;
19179;SDS011;9722;48.754;8.868;2024-03-17T16:16:47;3.67;;;2.40;;
19179;SDS011;9722;48.754;8.868;2024-03-17T16:20:08;2.97;;;2.30;;
19179;SDS011;9722;48.754;8.868;2024-03-17T16:23:37;2.13;;;1.97;;
19179;SDS011;9722;48.754;8.868;2024-03-17T16:27:11;2.17;;;1.97;;
19179;SDS011;9722;48.754;8.868;2024-03-17T16:30:32;2.23;;;1.70;;
19179;SDS011;9722;48.754;8.868;2024-03-17T16:33:53;3.83;;;3.30;;
19179;SDS011;9722;48.754;8.868;2024-03-17T16:37:13;3.17;;;2.70;;
19179;SDS011;9722;48.754;8.868;2024-03-17T16:40:34;7.10;;;4.30;;
19179;SDS011;9722;48.754;8.868;2024-03-17T16:47:29;11.00;;;6.97;;
19179;SDS011;9722;48.754;8.868;2024-03-17T16:50:52;8.07;;;6.30;;
19179;SDS011;9722;48.754;8.868;2024-03-17T16:54:13;5.03;;;4.20;;
19179;SDS011;9722;48.754;8.868;2024-03-17T16:57:34;3.80;;;3.40;;
19179;SDS011;9722;48.754;8.868;2024-03-17T17:00:55;2.90;;;2.70;;
19179;SDS011;9722;48.754;8.868;2024-03-17T17:04:16;2.63;;;2.43;;
19179;SDS011;9722;48.754;8.868;2024-03-17T17:07:36;2.03;;;1.93;;
19179;SDS011;9722;48.754;8.868;2024-03-17T17:10:57;1.73;;;1.63;;
19179;SDS011;9722;48.754;8.868;2024-03-17T17:14:17;2.43;;;2.03;;
19179;SDS011;9722;48.754;8.868;2024-03-17T17:17:38;2.10;;;1.90;;
19179;SDS011;9722;48.754;8.868;2024-03-17T17:20:58;3.47;;;2.20;;
19179;SDS011;9722;48.754;8.868;2024-03-17T17:24:19;2.80;;;2.60;;
19179;SDS011;9722;48.754;8.868;2024-03-17T17:27:43;4.73;;;2.17;;
19179;SDS011;9722;48.754;8.868;2024-03-17T17:31:03;2.50;;;2.30;;
19179;SDS011;9722;48.754;8.868;2024-03-17T17:34:24;3.90;;;2.20;;
19179;SDS011;9722;48.754;8.868;2024-03-17T17:37:44;2.50;;;2.30;;
19179;SDS011;9722;48.754;8.868;2024-03-17T17:41:05;2.77;;;2.57;;
19179;SDS011;9722;48.754;8.868;2024-03-17T17:44:35;4.17;;;2.53;;
19179;SDS011;9722;48.754;8.868;2024-03-17T17:47:55;2.27;;;2.13;;
19179;SDS011;9722;48.754;8.868;2024-03-17T17:51:17;2.53;;;2.07;;
19179;SDS011;9722;48.754;8.868;2024-03-17T17:54:38;3.23;;;2.37;;
19179;SDS011;9722;48.754;8.868;2024-03-17T17:57:59;4.30;;;2.60;;
19179;SDS011;9722;48.754;8.868;2024-03-17T18:01:21;2.90;;;2.70;;
19179;SDS011;9722;48.754;8.868;2024-03-17T18:04:42;3.57;;;3.30;;
19179;SDS011;9722;48.754;8.868;2024-03-17T18:08:02;3.50;;;3.20;;
19179;SDS011;9722;48.754;8.868;2024-03-17T18:11:23;3.37;;;3.07;;
19179;SDS011;9722;48.754;8.868;2024-03-17T18:14:44;2.90;;;2.70;;
19179;SDS011;9722;48.754;8.868;2024-03-17T18:18:05;7.43;;;3.50;;
19179;SDS011;9722;48.754;8.868;2024-03-17T18:21:26;3.30;;;3.07;;
19179;SDS011;9722;48.754;8.868;2024-03-17T18:24:46;3.23;;;2.93;;
19179;SDS011;9722;48.754;8.868;2024-03-17T18:28:07;6.00;;;5.40;;
19179;SDS011;9722;48.754;8.868;2024-03-17T18:31:28;5.57;;;4.40;;
19179;SDS011;9722;48.754;8.868;2024-03-17T18:34:49;4.87;;;4.40;;
19179;SDS011;9722;48.754;8.868;2024-03-17T18:38:09;5.20;;;4.70;;
19179;SDS011;9722;48.754;8.868;2024-03-17T18:41:30;6.23;;;4.60;;
19179;SDS011;9722;48.754;8.868;2024-03-17T18:44:51;6.73;;;6.17;;
19179;SDS011;9722;48.754;8.868;2024-03-17T18:48:13;8.00;;;7.30;;
19179;SDS011;9722;48.754;8.868;2024-03-17T18:51:34;5.10;;;4.60;;
19179;SDS011;9722;48.754;8.868;2024-03-17T18:54:54;4.50;;;4.13;;
19179;SDS011;9722;48.754;8.868;2024-03-17T18:58:15;5.20;;;4.70;;
19179;SDS011;9722;48.754;8.868;2024-03-17T19:01:36;4.70;;;4.40;;
19179;SDS011;9722;48.754;8.868;2024-03-17T19:04:56;5.53;;;4.77;;
19179;SDS011;9722;48.754;8.868;2024-03-17T19:08:18;5.80;;;5.30;;
19179;SDS011;9722;48.754;8.868;2024-03-17T19:11:39;7.30;;;4.77;;
19179;SDS011;9722;48.754;8.868;2024-03-17T19:15:02;5.47;;;5.07;;
19179;SDS011;9722;48.754;8.868;2024-03-17T19:18:24;5.87;;;5.37;;
19179;SDS011;9722;48.754;8.868;2024-03-17T19:21:45;6.90;;;4.33;;
19179;SDS011;9722;48.754;8.868;2024-03-17T19:25:08;5.50;;;4.33;;
19179;SDS011;9722;48.754;8.868;2024-03-17T19:28:29;5.23;;;4.37;;
19179;SDS011;9722;48.754;8.868;2024-03-17T19:31:50;4.10;;;3.27;;
19179;SDS011;9722;48.754;8.868;2024-03-17T19:35:10;4.20;;;3.87;;
19179;SDS011;9722;48.754;8.868;2024-03-17T19:38:31;4.00;;;3.70;;
19179;SDS011;9722;48.754;8.868;2024-03-17T19:41:53;4.23;;;3.93;;
19179;SDS011;9722;48.754;8.868;2024-03-17T19:45:13;4.33;;;3.93;;
19179;SDS011;9722;48.754;8.868;2024-03-17T19:48:34;4.70;;;4.40;;
19179;SDS011;9722;48.754;8.868;2024-03-17T19:51:54;8.87;;;6.10;;
19179;SDS011;9722;48.754;8.868;2024-03-17T19:55:15;6.10;;;5.50;;
19179;SDS011;9722;48.754;8.868;2024-03-17T19:58:38;5.70;;;5.20;;
19179;SDS011;9722;48.754;8.868;2024-03-17T20:01:58;8.17;;;6.87;;
19179;SDS011;9722;48.754;8.868;2024-03-17T20:05:19;9.77;;;8.77;;
19179;SDS011;9722;48.754;8.868;2024-03-17T20:08:39;9.13;;;8.23;;
19179;SDS011;9722;48.754;8.868;2024-03-17T20:12:00;10.10;;;9.10;;
19179;SDS011;9722;48.754;8.868;2024-03-17T20:15:20;9.03;;;8.03;;
19179;SDS011;9722;48.754;8.868;2024-03-17T20:18:43;7.53;;;6.83;;
19179;SDS011;9722;48.754;8.868;2024-03-17T20:22:03;8.70;;;7.83;;
19179;SDS011;9722;48.754;8.868;2024-03-17T20:25:25;11.27;;;9.93;;
19179;SDS011;9722;48.754;8.868;2024-03-17T20:28:45;3.93;;;3.60;;
19179;SDS011;9722;48.754;8.868;2024-03-17T20:32:07;4.67;;;4.20;;
19179;SDS011;9722;48.754;8.868;2024-03-17T20:35:28;4.93;;;4.00;;
19179;SDS011;9722;48.754;8.868;2024-03-17T20:38:49;7.43;;;6.27;;
19179;SDS011;9722;48.754;8.868;2024-03-17T20:42:09;4.83;;;4.37;;
19179;SDS011;9722;48.754;8.868;2024-03-17T20:45:30;3.90;;;3.60;;
19179;SDS011;9722;48.754;8.868;2024-03-17T20:48:50;3.43;;;3.13;;
19179;SDS011;9722;48.754;8.868;2024-03-17T20:52:12;3.13;;;2.93;;
19179;SDS011;9722;48.754;8.868;2024-03-17T20:55:33;3.93;;;3.63;;